sensor_id;sensor_type;location;lat;lon;timestamp;pressure;altitude;pressure_sealevel;temperature;humidity
32320;BME280;19080;51.750;5.888;2023-06-01T00:02:18;102055.03;;;11.88;100.00
32320;BME280;19080;51.750;5.888;2023-06-01T00:04:45;102098.91;;;12.02;100.00
32320;BME280;19080;51.750;5.888;2023-06-01T00:07:12;102095.50;;;12.06;100.00
32320;BME280;19080;51.750;5.888;2023-06-01T00:09:38;102073.66;;;11.88;100.00
32320;BME280;19080;51.750;5.888;2023-06-01T00:12:05;102079.75;;;11.84;100.00
32320;BME280;19080;51.750;5.888;2023-06-01T00:14:32;102084.06;;;11.80;100.00
32320;BME280;19080;51.750;5.888;2023-06-01T00:16:59;102109.00;;;11.84;100.00
32320;BME280;19080;51.750;5.888;2023-06-01T00:19:26;102085.25;;;11.61;100.00
32320;BME280;19080;51.750;5.888;2023-06-01T00:21:54;102069.09;;;11.55;100.00
32320;BME280;19080;51.750;5.888;2023-06-01T00:24:22;102063.72;;;11.54;100.00
32320;BME280;19080;51.750;5.888;2023-06-01T00:26:49;102031.06;;;11.29;100.00
32320;BME280;19080;51.750;5.888;2023-06-01T00:29:16;102093.78;;;11.51;100.00
32320;BME280;19080;51.750;5.888;2023-06-01T00:31:43;102052.09;;;11.22;100.00
32320;BME280;19080;51.750;5.888;2023-06-01T00:34:11;102083.44;;;11.32;100.00
32320;BME280;19080;51.750;5.888;2023-06-01T00:36:38;102088.75;;;11.32;100.00
32320;BME280;19080;51.750;5.888;2023-06-01T00:39:07;102062.53;;;11.16;100.00
32320;BME280;19080;51.750;5.888;2023-06-01T00:41:33;102080.06;;;11.11;100.00
32320;BME280;19080;51.750;5.888;2023-06-01T00:44:00;101987.09;;;10.57;100.00
32320;BME280;19080;51.750;5.888;2023-06-01T00:46:29;102106.84;;;11.17;100.00
32320;BME280;19080;51.750;5.888;2023-06-01T00:48:58;102008.44;;;10.60;100.00
32320;BME280;19080;51.750;5.888;2023-06-01T00:51:25;102105.75;;;11.10;100.00
32320;BME280;19080;51.750;5.888;2023-06-01T00:53:52;102074.03;;;10.89;100.00
32320;BME280;19080;51.750;5.888;2023-06-01T00:56:20;102110.81;;;11.02;100.00
32320;BME280;19080;51.750;5.888;2023-06-01T00:58:48;102107.25;;;11.02;100.00
32320;BME280;19080;51.750;5.888;2023-06-01T01:01:16;102106.22;;;10.98;100.00
32320;BME280;19080;51.750;5.888;2023-06-01T01:03:47;102019.84;;;10.57;100.00
32320;BME280;19080;51.750;5.888;2023-06-01T01:09:22;102116.28;;;11.07;100.00
32320;BME280;19080;51.750;5.888;2023-06-01T01:12:00;102103.53;;;10.97;100.00
32320;BME280;19080;51.750;5.888;2023-06-01T01:14:37;102033.13;;;10.57;100.00
32320;BME280;19080;51.750;5.888;2023-06-01T01:17:09;102119.78;;;11.06;100.00
32320;BME280;19080;51.750;5.888;2023-06-01T01:24:53;102135.22;;;11.18;100.00
32320;BME280;19080;51.750;5.888;2023-06-01T01:27:52;102079.66;;;10.98;100.00
32320;BME280;19080;51.750;5.888;2023-06-01T01:30:28;102117.69;;;11.23;100.00
32320;BME280;19080;51.750;5.888;2023-06-01T01:32:56;102013.63;;;10.57;100.00
32320;BME280;19080;51.750;5.888;2023-06-01T01:35:25;102101.34;;;11.11;100.00
32320;BME280;19080;51.750;5.888;2023-06-01T01:37:53;102087.94;;;11.07;100.00
32320;BME280;19080;51.750;5.888;2023-06-01T01:40:23;102101.59;;;11.18;100.00
32320;BME280;19080;51.750;5.888;2023-06-01T01:42:51;102033.16;;;10.84;100.00
32320;BME280;19080;51.750;5.888;2023-06-01T01:45:19;102135.13;;;11.41;100.00
32320;BME280;19080;51.750;5.888;2023-06-01T01:48:11;102132.72;;;11.49;100.00
32320;BME280;19080;51.750;5.888;2023-06-01T01:50:52;102050.94;;;11.14;100.00
32320;BME280;19080;51.750;5.888;2023-06-01T01:53:19;102100.63;;;11.43;100.00
32320;BME280;19080;51.750;5.888;2023-06-01T01:55:51;102130.34;;;11.58;100.00
32320;BME280;19080;51.750;5.888;2023-06-01T01:58:19;102114.25;;;11.54;100.00
32320;BME280;19080;51.750;5.888;2023-06-01T02:00:47;102117.81;;;11.54;100.00
32320;BME280;19080;51.750;5.888;2023-06-01T02:03:15;102135.91;;;11.66;100.00
32320;BME280;19080;51.750;5.888;2023-06-01T02:05:43;102113.53;;;11.59;100.00
32320;BME280;19080;51.750;5.888;2023-06-01T02:08:11;102115.44;;;11.63;100.00
32320;BME280;19080;51.750;5.888;2023-06-01T02:10:38;102109.13;;;11.60;100.00
32320;BME280;19080;51.750;5.888;2023-06-01T02:13:07;102037.84;;;11.20;100.00
32320;BME280;19080;51.750;5.888;2023-06-01T02:15:34;102101.28;;;11.64;100.00
32320;BME280;19080;51.750;5.888;2023-06-01T02:18:00;102086.75;;;11.53;100.00
32320;BME280;19080;51.750;5.888;2023-06-01T02:20:29;102095.69;;;11.55;100.00
32320;BME280;19080;51.750;5.888;2023-06-01T02:22:57;102097.50;;;11.56;100.00
32320;BME280;19080;51.750;5.888;2023-06-01T02:25:24;102065.19;;;11.44;100.00
32320;BME280;19080;51.750;5.888;2023-06-01T02:27:51;102127.38;;;11.76;100.00
32320;BME280;19080;51.750;5.888;2023-06-01T02:30:17;102111.22;;;11.70;100.00
32320;BME280;19080;51.750;5.888;2023-06-01T02:32:45;102093.25;;;11.63;100.00
32320;BME280;19080;51.750;5.888;2023-06-01T02:35:15;102110.72;;;11.82;100.00
32320;BME280;19080;51.750;5.888;2023-06-01T02:37:41;102103.38;;;11.74;100.00
32320;BME280;19080;51.750;5.888;2023-06-01T02:40:08;102084.66;;;11.71;100.00
32320;BME280;19080;51.750;5.888;2023-06-01T02:42:38;102124.34;;;11.92;100.00
32320;BME280;19080;51.750;5.888;2023-06-01T02:45:08;102092.75;;;11.74;100.00
32320;BME280;19080;51.750;5.888;2023-06-01T02:47:35;102115.22;;;11.84;100.00
32320;BME280;19080;51.750;5.888;2023-06-01T02:50:02;102130.66;;;11.96;100.00
32320;BME280;19080;51.750;5.888;2023-06-01T02:52:33;102100.75;;;11.76;100.00
32320;BME280;19080;51.750;5.888;2023-06-01T02:55:01;102135.03;;;11.94;100.00
32320;BME280;19080;51.750;5.888;2023-06-01T02:57:45;102002.72;;;11.30;100.00
32320;BME280;19080;51.750;5.888;2023-06-01T03:00:12;102096.53;;;11.81;100.00
32320;BME280;19080;51.750;5.888;2023-06-01T03:02:47;102029.16;;;11.54;100.00
32320;BME280;19080;51.750;5.888;2023-06-01T03:05:14;102124.91;;;12.11;100.00
32320;BME280;19080;51.750;5.888;2023-06-01T03:07:46;102106.03;;;12.03;100.00
32320;BME280;19080;51.750;5.888;2023-06-01T03:10:20;102086.19;;;11.92;100.00
32320;BME280;19080;51.750;5.888;2023-06-01T03:12:57;102106.03;;;12.03;100.00
32320;BME280;19080;51.750;5.888;2023-06-01T03:15:24;102118.59;;;12.07;100.00
32320;BME280;19080;51.750;5.888;2023-06-01T03:17:51;102120.47;;;12.11;100.00
32320;BME280;19080;51.750;5.888;2023-06-01T03:20:18;102089.72;;;11.91;100.00
32320;BME280;19080;51.750;5.888;2023-06-01T03:22:45;102038.19;;;11.59;100.00
32320;BME280;19080;51.750;5.888;2023-06-01T03:25:12;102099.38;;;11.87;100.00
32320;BME280;19080;51.750;5.888;2023-06-01T03:27:40;102106.63;;;11.93;100.00
32320;BME280;19080;51.750;5.888;2023-06-01T03:30:09;102127.44;;;12.06;100.00
32320;BME280;19080;51.750;5.888;2023-06-01T03:32:38;102129.13;;;12.04;100.00
32320;BME280;19080;51.750;5.888;2023-06-01T03:35:06;102092.25;;;11.86;100.00
32320;BME280;19080;51.750;5.888;2023-06-01T03:37:40;102087.91;;;11.90;100.00
32320;BME280;19080;51.750;5.888;2023-06-01T03:40:08;102033.84;;;11.62;100.00
32320;BME280;19080;51.750;5.888;2023-06-01T03:42:43;102120.38;;;12.08;100.00
32320;BME280;19080;51.750;5.888;2023-06-01T03:45:12;102107.66;;;11.98;100.00
32320;BME280;19080;51.750;5.888;2023-06-01T03:47:39;102088.59;;;11.83;100.00
32320;BME280;19080;51.750;5.888;2023-06-01T03:50:08;102113.75;;;11.94;100.00
32320;BME280;19080;51.750;5.888;2023-06-01T03:52:35;102106.44;;;11.87;100.00
32320;BME280;19080;51.750;5.888;2023-06-01T03:55:05;102087.41;;;11.74;100.00
32320;BME280;19080;51.750;5.888;2023-06-01T03:58:01;102098.38;;;11.84;100.00
32320;BME280;19080;51.750;5.888;2023-06-01T04:00:30;102117.59;;;12.03;100.00
32320;BME280;19080;51.750;5.888;2023-06-01T04:02:59;102091.53;;;11.92;100.00
32320;BME280;19080;51.750;5.888;2023-06-01T04:05:28;102080.69;;;11.86;100.00
32320;BME280;19080;51.750;5.888;2023-06-01T04:07:55;102132.94;;;12.12;100.00
32320;BME280;19080;51.750;5.888;2023-06-01T04:10:22;102125.91;;;12.16;100.00
32320;BME280;19080;51.750;5.888;2023-06-01T04:12:49;102052.19;;;11.82;100.00
32320;BME280;19080;51.750;5.888;2023-06-01T04:15:20;102097.19;;;12.04;100.00
32320;BME280;19080;51.750;5.888;2023-06-01T04:17:47;102099.00;;;12.05;100.00
32320;BME280;19080;51.750;5.888;2023-06-01T04:20:16;102134.28;;;12.29;100.00
32320;BME280;19080;51.750;5.888;2023-06-01T04:22:45;102131.63;;;12.29;100.00
32320;BME280;19080;51.750;5.888;2023-06-01T04:25:14;102127.41;;;12.37;100.00
32320;BME280;19080;51.750;5.888;2023-06-01T04:27:47;102043.72;;;11.95;100.00
32320;BME280;19080;51.750;5.888;2023-06-01T04:30:15;102049.22;;;12.01;100.00
32320;BME280;19080;51.750;5.888;2023-06-01T04:32:43;102097.03;;;12.29;100.00
32320;BME280;19080;51.750;5.888;2023-06-01T04:35:11;102091.09;;;12.39;100.00
32320;BME280;19080;51.750;5.888;2023-06-01T04:37:39;102101.06;;;12.47;100.00
32320;BME280;19080;51.750;5.888;2023-06-01T04:40:09;102045.50;;;12.27;100.00
32320;BME280;19080;51.750;5.888;2023-06-01T04:42:39;102101.47;;;12.62;100.00
32320;BME280;19080;51.750;5.888;2023-06-01T04:45:09;102052.63;;;12.28;100.00
32320;BME280;19080;51.750;5.888;2023-06-01T04:47:37;102118.47;;;12.67;100.00
32320;BME280;19080;51.750;5.888;2023-06-01T04:50:14;102029.00;;;12.08;100.00
32320;BME280;19080;51.750;5.888;2023-06-01T04:52:44;102096.84;;;12.55;100.00
32320;BME280;19080;51.750;5.888;2023-06-01T04:55:11;102028.41;;;12.19;100.00
32320;BME280;19080;51.750;5.888;2023-06-01T04:57:41;102098.03;;;12.66;100.00
32320;BME280;19080;51.750;5.888;2023-06-01T05:00:12;102112.53;;;12.77;100.00
32320;BME280;19080;51.750;5.888;2023-06-01T05:02:40;102113.63;;;12.85;100.00
32320;BME280;19080;51.750;5.888;2023-06-01T05:05:10;102141.78;;;13.09;100.00
32320;BME280;19080;51.750;5.888;2023-06-01T05:07:37;102055.72;;;12.78;100.00
32320;BME280;19080;51.750;5.888;2023-06-01T05:10:07;102141.59;;;13.34;100.00
32320;BME280;19080;51.750;5.888;2023-06-01T05:12:44;102111.16;;;13.26;100.00
32320;BME280;19080;51.750;5.888;2023-06-01T05:15:13;102098.91;;;13.34;100.00
32320;BME280;19080;51.750;5.888;2023-06-01T05:17:40;102127.72;;;13.49;100.00
32320;BME280;19080;51.750;5.888;2023-06-01T05:20:11;102113.41;;;13.45;100.00
32320;BME280;19080;51.750;5.888;2023-06-01T05:22:40;102047.56;;;13.07;100.00
32320;BME280;19080;51.750;5.888;2023-06-01T05:25:07;102134.81;;;13.48;100.00
32320;BME280;19080;51.750;5.888;2023-06-01T05:27:35;102101.47;;;13.29;100.00
32320;BME280;19080;51.750;5.888;2023-06-01T05:30:03;102116.78;;;13.38;100.00
32320;BME280;19080;51.750;5.888;2023-06-01T05:32:30;102025.78;;;12.88;100.00
32320;BME280;19080;51.750;5.888;2023-06-01T05:35:04;102125.81;;;13.43;100.00
32320;BME280;19080;51.750;5.888;2023-06-01T05:37:34;102109.78;;;13.43;100.00
32320;BME280;19080;51.750;5.888;2023-06-01T05:40:01;102110.63;;;13.41;100.00
32320;BME280;19080;51.750;5.888;2023-06-01T05:42:28;102137.69;;;13.57;100.00
32320;BME280;19080;51.750;5.888;2023-06-01T05:44:55;102117.28;;;13.59;100.00
32320;BME280;19080;51.750;5.888;2023-06-01T05:47:22;102120.31;;;13.75;100.00
32320;BME280;19080;51.750;5.888;2023-06-01T05:49:49;102116.06;;;13.83;100.00
32320;BME280;19080;51.750;5.888;2023-06-01T05:52:15;102111.69;;;13.86;100.00
32320;BME280;19080;51.750;5.888;2023-06-01T05:54:43;102139.78;;;14.11;100.00
32320;BME280;19080;51.750;5.888;2023-06-01T05:57:09;102143.84;;;14.34;100.00
32320;BME280;19080;51.750;5.888;2023-06-01T05:59:36;102121.59;;;14.36;100.00
32320;BME280;19080;51.750;5.888;2023-06-01T06:02:03;102134.16;;;14.41;100.00
32320;BME280;19080;51.750;5.888;2023-06-01T06:04:30;102145.78;;;14.42;100.00
32320;BME280;19080;51.750;5.888;2023-06-01T06:06:56;102040.38;;;13.81;100.00
32320;BME280;19080;51.750;5.888;2023-06-01T06:09:23;102125.03;;;14.30;100.00
32320;BME280;19080;51.750;5.888;2023-06-01T06:11:50;102122.09;;;14.16;100.00
32320;BME280;19080;51.750;5.888;2023-06-01T06:14:16;102073.41;;;13.86;100.00
32320;BME280;19080;51.750;5.888;2023-06-01T06:16:43;102114.88;;;14.12;100.00
32320;BME280;19080;51.750;5.888;2023-06-01T06:19:10;102087.97;;;14.03;100.00
32320;BME280;19080;51.750;5.888;2023-06-01T06:21:37;102127.28;;;14.51;100.00
32320;BME280;19080;51.750;5.888;2023-06-01T06:24:04;102126.81;;;14.73;100.00
32320;BME280;19080;51.750;5.888;2023-06-01T06:26:30;102133.47;;;14.96;100.00
32320;BME280;19080;51.750;5.888;2023-06-01T06:28:57;101995.06;;;14.30;100.00
32320;BME280;19080;51.750;5.888;2023-06-01T06:31:24;102079.03;;;14.91;100.00
32320;BME280;19080;51.750;5.888;2023-06-01T06:33:50;102122.44;;;15.28;100.00
32320;BME280;19080;51.750;5.888;2023-06-01T06:36:17;102139.69;;;15.47;100.00
32320;BME280;19080;51.750;5.888;2023-06-01T06:38:44;102148.91;;;15.66;100.00
32320;BME280;19080;51.750;5.888;2023-06-01T06:41:11;102146.41;;;15.78;100.00
32320;BME280;19080;51.750;5.888;2023-06-01T06:43:38;102142.81;;;15.76;100.00
32320;BME280;19080;51.750;5.888;2023-06-01T06:46:05;102139.28;;;15.78;100.00
32320;BME280;19080;51.750;5.888;2023-06-01T06:48:31;102078.34;;;15.60;100.00
32320;BME280;19080;51.750;5.888;2023-06-01T06:50:58;102096.53;;;15.86;100.00
32320;BME280;19080;51.750;5.888;2023-06-01T06:53:25;102129.03;;;16.13;100.00
32320;BME280;19080;51.750;5.888;2023-06-01T06:55:51;102140.72;;;16.18;100.00
32320;BME280;19080;51.750;5.888;2023-06-01T06:58:18;102157.09;;;16.41;100.00
32320;BME280;19080;51.750;5.888;2023-06-01T07:00:45;102151.84;;;16.52;100.00
32320;BME280;19080;51.750;5.888;2023-06-01T07:03:11;102141.94;;;16.45;100.00
32320;BME280;19080;51.750;5.888;2023-06-01T07:05:38;102146.19;;;16.26;100.00
32320;BME280;19080;51.750;5.888;2023-06-01T07:08:05;102158.03;;;16.45;100.00
32320;BME280;19080;51.750;5.888;2023-06-01T07:10:31;102140.25;;;16.53;100.00
32320;BME280;19080;51.750;5.888;2023-06-01T07:12:58;102145.63;;;16.53;100.00
32320;BME280;19080;51.750;5.888;2023-06-01T07:15:24;102152.09;;;16.69;100.00
32320;BME280;19080;51.750;5.888;2023-06-01T07:17:51;102158.59;;;16.94;100.00
32320;BME280;19080;51.750;5.888;2023-06-01T07:20:18;102151.03;;;16.59;100.00
32320;BME280;19080;51.750;5.888;2023-06-01T07:22:45;102072.06;;;16.26;100.00
32320;BME280;19080;51.750;5.888;2023-06-01T07:25:12;102159.66;;;17.11;100.00
32320;BME280;19080;51.750;5.888;2023-06-01T07:27:42;102075.72;;;17.27;96.50
32320;BME280;19080;51.750;5.888;2023-06-01T07:30:12;102132.59;;;18.00;92.22
32320;BME280;19080;51.750;5.888;2023-06-01T07:32:39;102115.72;;;18.39;89.77
32320;BME280;19080;51.750;5.888;2023-06-01T07:35:07;102141.00;;;18.90;87.01
32320;BME280;19080;51.750;5.888;2023-06-01T07:37:34;102149.97;;;18.97;76.17
32320;BME280;19080;51.750;5.888;2023-06-01T07:40:01;102136.44;;;18.62;77.97
32320;BME280;19080;51.750;5.888;2023-06-01T07:42:27;102089.72;;;18.34;78.14
32320;BME280;19080;51.750;5.888;2023-06-01T07:44:55;102140.06;;;18.71;79.24
32320;BME280;19080;51.750;5.888;2023-06-01T07:47:22;102134.69;;;18.80;77.35
32320;BME280;19080;51.750;5.888;2023-06-01T07:49:51;102123.97;;;19.05;74.53
32320;BME280;19080;51.750;5.888;2023-06-01T07:52:18;102130.22;;;19.25;70.83
32320;BME280;19080;51.750;5.888;2023-06-01T07:54:44;102084.47;;;19.13;68.87
32320;BME280;19080;51.750;5.888;2023-06-01T07:57:11;102129.31;;;19.47;72.45
32320;BME280;19080;51.750;5.888;2023-06-01T07:59:38;102131.06;;;19.94;70.99
32320;BME280;19080;51.750;5.888;2023-06-01T08:02:05;102139.97;;;20.13;66.88
32320;BME280;19080;51.750;5.888;2023-06-01T08:04:33;102149.03;;;19.95;64.94
32320;BME280;19080;51.750;5.888;2023-06-01T08:07:00;102071.88;;;19.33;67.24
32320;BME280;19080;51.750;5.888;2023-06-01T08:09:30;102147.31;;;19.52;67.79
32320;BME280;19080;51.750;5.888;2023-06-01T08:11:59;102131.13;;;19.27;67.04
32320;BME280;19080;51.750;5.888;2023-06-01T08:14:26;102114.97;;;18.91;69.97
32320;BME280;19080;51.750;5.888;2023-06-01T08:16:53;102113.19;;;18.83;71.02
32320;BME280;19080;51.750;5.888;2023-06-01T08:19:20;102137.41;;;19.20;71.39
32320;BME280;19080;51.750;5.888;2023-06-01T08:21:46;102115.84;;;19.43;65.59
32320;BME280;19080;51.750;5.888;2023-06-01T08:24:13;102135.63;;;19.56;68.30
32320;BME280;19080;51.750;5.888;2023-06-01T08:26:40;102126.56;;;19.90;66.11
32320;BME280;19080;51.750;5.888;2023-06-01T08:29:07;102058.22;;;20.09;62.70
32320;BME280;19080;51.750;5.888;2023-06-01T08:31:34;102097.53;;;20.59;61.35
32320;BME280;19080;51.750;5.888;2023-06-01T08:34:03;102108.22;;;20.77;62.47
32320;BME280;19080;51.750;5.888;2023-06-01T08:36:29;102112.41;;;21.15;58.82
32320;BME280;19080;51.750;5.888;2023-06-01T08:38:57;102119.56;;;21.19;57.82
32320;BME280;19080;51.750;5.888;2023-06-01T08:41:30;102121.63;;;20.84;58.18
32320;BME280;19080;51.750;5.888;2023-06-01T08:44:03;102111.84;;;20.75;59.60
32320;BME280;19080;51.750;5.888;2023-06-01T08:46:31;102037.22;;;20.68;56.67
32320;BME280;19080;51.750;5.888;2023-06-01T08:48:59;102118.69;;;21.16;56.13
32320;BME280;19080;51.750;5.888;2023-06-01T08:51:26;102106.97;;;21.24;56.44
32320;BME280;19080;51.750;5.888;2023-06-01T08:53:57;102097.72;;;21.50;55.35
32320;BME280;19080;51.750;5.888;2023-06-01T08:56:28;102098.53;;;21.58;56.10
32320;BME280;19080;51.750;5.888;2023-06-01T08:58:55;102106.72;;;21.49;55.24
32320;BME280;19080;51.750;5.888;2023-06-01T09:01:23;102076.31;;;21.28;54.86
32320;BME280;19080;51.750;5.888;2023-06-01T09:03:51;102099.28;;;21.72;54.57
32320;BME280;19080;51.750;5.888;2023-06-01T09:06:18;102088.66;;;21.54;54.28
32320;BME280;19080;51.750;5.888;2023-06-01T09:08:45;102090.44;;;21.58;54.49
32320;BME280;19080;51.750;5.888;2023-06-01T09:11:12;102094.69;;;21.80;54.22
32320;BME280;19080;51.750;5.888;2023-06-01T09:13:40;102065.66;;;21.97;55.67
32320;BME280;19080;51.750;5.888;2023-06-01T09:16:07;102064.97;;;22.51;52.89
32320;BME280;19080;51.750;5.888;2023-06-01T09:18:34;102086.88;;;22.92;52.49
32320;BME280;19080;51.750;5.888;2023-06-01T09:21:11;102081.22;;;23.06;51.98
32320;BME280;19080;51.750;5.888;2023-06-01T09:23:39;102087.16;;;23.29;51.50
32320;BME280;19080;51.750;5.888;2023-06-01T09:26:13;102016.34;;;22.98;49.75
32320;BME280;19080;51.750;5.888;2023-06-01T09:31:37;102073.66;;;23.26;48.37
32320;BME280;19080;51.750;5.888;2023-06-01T09:34:04;101958.88;;;22.83;47.51
32320;BME280;19080;51.750;5.888;2023-06-01T09:36:32;102063.13;;;23.60;47.54
32320;BME280;19080;51.750;5.888;2023-06-01T09:39:03;102066.44;;;23.75;47.09
32320;BME280;19080;51.750;5.888;2023-06-01T09:41:50;102060.97;;;23.78;47.53
32320;BME280;19080;51.750;5.888;2023-06-01T09:44:34;102035.53;;;23.83;46.25
32320;BME280;19080;51.750;5.888;2023-06-01T09:47:03;102030.53;;;24.07;45.34
32320;BME280;19080;51.750;5.888;2023-06-01T09:49:34;102052.09;;;24.13;46.95
32320;BME280;19080;51.750;5.888;2023-06-01T09:54:36;102001.19;;;24.24;44.99
32320;BME280;19080;51.750;5.888;2023-06-01T09:57:03;102058.41;;;24.53;44.67
32320;BME280;19080;51.750;5.888;2023-06-01T09:59:44;102056.47;;;24.58;44.11
32320;BME280;19080;51.750;5.888;2023-06-01T10:02:16;101987.22;;;24.41;44.58
32320;BME280;19080;51.750;5.888;2023-06-01T10:04:53;102051.75;;;24.28;45.52
32320;BME280;19080;51.750;5.888;2023-06-01T10:07:22;102053.66;;;24.63;45.03
32320;BME280;19080;51.750;5.888;2023-06-01T10:09:57;102047.03;;;24.75;44.22
32320;BME280;19080;51.750;5.888;2023-06-01T10:12:25;102045.97;;;24.82;45.22
32320;BME280;19080;51.750;5.888;2023-06-01T10:14:52;102035.34;;;25.08;43.98
32320;BME280;19080;51.750;5.888;2023-06-01T10:17:20;102041.06;;;25.64;43.32
32320;BME280;19080;51.750;5.888;2023-06-01T10:19:46;102035.66;;;25.95;42.36
32320;BME280;19080;51.750;5.888;2023-06-01T10:22:13;102011.84;;;26.31;41.56
32320;BME280;19080;51.750;5.888;2023-06-01T10:24:40;101933.75;;;25.77;41.11
32320;BME280;19080;51.750;5.888;2023-06-01T10:29:46;101971.88;;;26.33;39.67
32320;BME280;19080;51.750;5.888;2023-06-01T10:32:45;102033.16;;;26.46;40.41
32320;BME280;19080;51.750;5.888;2023-06-01T10:40:39;102016.91;;;26.99;38.53
32320;BME280;19080;51.750;5.888;2023-06-01T10:43:25;101960.91;;;26.89;38.04
32320;BME280;19080;51.750;5.888;2023-06-01T10:45:55;102012.16;;;27.55;37.66
32320;BME280;19080;51.750;5.888;2023-06-01T10:48:54;102017.72;;;27.77;37.59
32320;BME280;19080;51.750;5.888;2023-06-01T10:51:22;102008.16;;;27.41;36.28
32320;BME280;19080;51.750;5.888;2023-06-01T10:53:52;102027.09;;;26.92;37.61
32320;BME280;19080;51.750;5.888;2023-06-01T10:56:23;101962.69;;;26.90;37.65
32320;BME280;19080;51.750;5.888;2023-06-01T11:01:44;102008.72;;;27.26;38.03
32320;BME280;19080;51.750;5.888;2023-06-01T11:04:12;102007.72;;;27.53;37.03
32320;BME280;19080;51.750;5.888;2023-06-01T11:06:41;101933.22;;;27.51;37.30
32320;BME280;19080;51.750;5.888;2023-06-01T11:09:10;101993.16;;;28.01;36.59
32320;BME280;19080;51.750;5.888;2023-06-01T11:14:22;101998.44;;;28.50;35.28
32320;BME280;19080;51.750;5.888;2023-06-01T11:16:53;101994.19;;;28.20;35.63
32320;BME280;19080;51.750;5.888;2023-06-01T11:19:24;101943.94;;;28.26;35.01
32320;BME280;19080;51.750;5.888;2023-06-01T11:21:59;101938.88;;;28.15;34.96
32320;BME280;19080;51.750;5.888;2023-06-01T11:24:33;101991.84;;;28.78;34.54
32320;BME280;19080;51.750;5.888;2023-06-01T11:27:05;101972.50;;;29.25;34.21
32320;BME280;19080;51.750;5.888;2023-06-01T11:29:33;101975.16;;;29.06;34.82
32320;BME280;19080;51.750;5.888;2023-06-01T11:32:02;101986.22;;;29.03;34.73
32320;BME280;19080;51.750;5.888;2023-06-01T11:34:38;101979.06;;;29.21;33.58
32320;BME280;19080;51.750;5.888;2023-06-01T11:37:15;101961.00;;;29.37;33.96
32320;BME280;19080;51.750;5.888;2023-06-01T11:39:42;101919.97;;;29.37;33.63
32320;BME280;19080;51.750;5.888;2023-06-01T11:42:19;101838.34;;;28.89;33.65
32320;BME280;19080;51.750;5.888;2023-06-01T11:44:57;101922.13;;;30.07;33.06
32320;BME280;19080;51.750;5.888;2023-06-01T11:47:28;101961.88;;;30.52;32.18
32320;BME280;19080;51.750;5.888;2023-06-01T11:49:56;101966.06;;;30.41;31.39
32320;BME280;19080;51.750;5.888;2023-06-01T11:52:23;101971.88;;;30.53;32.73
32320;BME280;19080;51.750;5.888;2023-06-01T11:54:49;101967.28;;;30.89;31.78
32320;BME280;19080;51.750;5.888;2023-06-01T11:57:18;101960.72;;;30.38;32.04
32320;BME280;19080;51.750;5.888;2023-06-01T11:59:47;101951.56;;;30.57;32.02
32320;BME280;19080;51.750;5.888;2023-06-01T12:02:24;101950.50;;;30.61;31.51
32320;BME280;19080;51.750;5.888;2023-06-01T12:07:26;101951.47;;;30.77;31.69
32320;BME280;19080;51.750;5.888;2023-06-01T12:09:53;101955.50;;;30.70;32.03
32320;BME280;19080;51.750;5.888;2023-06-01T12:12:24;101944.13;;;30.60;31.67
32320;BME280;19080;51.750;5.888;2023-06-01T12:14:51;101908.13;;;30.49;32.03
32320;BME280;19080;51.750;5.888;2023-06-01T12:17:18;101926.63;;;30.63;31.38
32320;BME280;19080;51.750;5.888;2023-06-01T12:19:47;101932.13;;;30.97;31.91
32320;BME280;19080;51.750;5.888;2023-06-01T12:22:15;101926.88;;;31.10;31.50
32320;BME280;19080;51.750;5.888;2023-06-01T12:24:43;101940.59;;;30.75;32.09
32320;BME280;19080;51.750;5.888;2023-06-01T12:27:14;101932.94;;;30.99;31.22
32320;BME280;19080;51.750;5.888;2023-06-01T12:29:43;101934.88;;;30.97;31.69
32320;BME280;19080;51.750;5.888;2023-06-01T12:32:12;101920.09;;;31.00;31.10
32320;BME280;19080;51.750;5.888;2023-06-01T12:34:39;101946.16;;;30.91;31.43
32320;BME280;19080;51.750;5.888;2023-06-01T12:37:19;101863.41;;;31.00;30.79
32320;BME280;19080;51.750;5.888;2023-06-01T12:39:54;101909.16;;;31.33;31.03
32320;BME280;19080;51.750;5.888;2023-06-01T12:42:39;101860.25;;;31.41;30.12
32320;BME280;19080;51.750;5.888;2023-06-01T12:45:07;101936.16;;;31.91;30.05
32320;BME280;19080;51.750;5.888;2023-06-01T12:47:38;101921.16;;;31.48;29.99
32320;BME280;19080;51.750;5.888;2023-06-01T12:50:06;101936.97;;;30.92;30.74
32320;BME280;19080;51.750;5.888;2023-06-01T12:52:35;101921.56;;;31.07;30.92
32320;BME280;19080;51.750;5.888;2023-06-01T12:55:02;101910.66;;;31.23;30.27
32320;BME280;19080;51.750;5.888;2023-06-01T12:57:31;101927.31;;;31.35;29.79
32320;BME280;19080;51.750;5.888;2023-06-01T12:59:58;101901.94;;;31.81;29.31
32320;BME280;19080;51.750;5.888;2023-06-01T13:02:25;101922.25;;;31.94;29.67
32320;BME280;19080;51.750;5.888;2023-06-01T13:04:53;101920.47;;;31.77;29.58
32320;BME280;19080;51.750;5.888;2023-06-01T13:07:20;101867.66;;;31.39;29.52
32320;BME280;19080;51.750;5.888;2023-06-01T13:09:50;101923.66;;;31.52;29.25
32320;BME280;19080;51.750;5.888;2023-06-01T13:12:16;101909.91;;;31.69;28.96
32320;BME280;19080;51.750;5.888;2023-06-01T13:14:43;101903.19;;;30.38;30.85
32320;BME280;19080;51.750;5.888;2023-06-01T13:17:10;101881.25;;;30.38;30.90
32320;BME280;19080;51.750;5.888;2023-06-01T13:19:37;101741.44;;;29.69;30.72
32320;BME280;19080;51.750;5.888;2023-06-01T13:22:05;101904.28;;;31.05;30.44
32320;BME280;19080;51.750;5.888;2023-06-01T13:24:32;101898.72;;;31.06;29.68
32320;BME280;19080;51.750;5.888;2023-06-01T13:27:19;101899.22;;;30.80;30.49